Wisecarver (157, 524) Station Data

Red Flag Warning: No
Fire Weather Zone: 250
SDGE Region: Mountain Empire
Lat/Lon: 32.732/-116.762

Observations

Time Wind Speed/Gust Temp(F) RH Fuel Moist Fuel Temp(F) Dewpt(F) Tmax(F) Tmin(F) Accum Precip 10-min Precip SL Press(mb)
4/26 2:40am 3 2 G 3 55° 63% - - 43° 57.2° 54.3° - - -
4/26 2:30am 332 1 G 2 55° 62% - - 43° 57.2° 54.9° - - -
4/26 2:20am 228 1 G 3 56° 62% - - 43° 57.2° 54.9° - - -
4/26 2:10am 240 2 G 3 56° 61% - - 42° 57.2° 54.9° - - -
4/26 2:00am 316 0 G 0 56° 60% - - 42° 57.2° 54.9° - - -
4/26 1:50am 110 1 G 2 56° 60% - - 42° 57.2° 54.9° - - -
4/26 1:40am 16 2 G 3 56° 60% - - 42° 57.2° 54.9° - - -
4/26 1:30am 328 3 G 4 56° 59% - - 42° 57.2° 54.9° - - -
4/26 1:20am 319 2 G 3 57° 58% - - 42° 57.2° 54.9° - - -
4/26 1:10am 15 1 G 2 56° 59% - - 42° 57.1° 54.9° - - -
4/26 1:00am 107 2 G 3 56° 63% - - 43° 56.3° 54.9° - - -
4/26 12:50am 104 2 G 3 55° 65% - - 44° 55.8° 54.9° - - -
4/26 12:40am 48 2 G 3 56° 65% - - 44° 55.8° 54.9° - - -
4/26 12:30am 349 2 G 3 55° 66% - - 44° 55.8° 54.9° - - -
4/26 12:20am 329 2 G 3 55° 66% - - 44° 55.8° 54.9° - - -
4/26 12:10am 34 2 G 4 55° 67% - - 44° 55.4° 54.9° - - -
4/26 12:00am 79 2 G 4 55° 69% - - 45° 62.1° 48.2° - - -
4/25 11:50pm 70 3 G 4 55° 70% - - 45° 62.1° 48.2° - - -
4/25 11:40pm 45 2 G 3 53° 73% - - 45° 62.1° 48.2° - - -
4/25 11:30pm 88 1 G 3 53° 75% - - 45° 62.1° 48.2° - - -
4/25 11:20pm 101 3 G 4 52° 75% - - 45° 62.1° 48.2° - - -
4/25 11:10pm 111 3 G 5 51° 76% - - 44° 62.1° 48.2° - - -
4/25 11:00pm 112 3 G 4 51° 75% - - 44° 62.1° 48.2° - - -
4/25 10:50pm 123 3 G 4 51° 73% - - 43° 62.1° 48.2° - - -
4/25 10:40pm 104 2 G 3 51° 70% - - 42° 62.1° 48.2° - - -
4/25 10:30pm 103 1 G 2 51° 70% - - 42° 62.1° 48.2° - - -
4/25 10:20pm 114 1 G 1 51° 71% - - 42° 62.1° 48.2° - - -
4/25 10:10pm 90 0 G 1 51° 71% - - 42° 62.1° 48.2° - - -
4/25 10:00pm 0 0 G 0 51° 72% - - 42° 62.1° 48.2° - - -
4/25 9:50pm 205 1 G 2 51° 72% - - 42° 62.1° 48.2° - - -
4/25 9:40pm 298 1 G 2 51° 72% - - 42° 62.1° 48.2° - - -
4/25 9:30pm 307 2 G 4 51° 72% - - 42° 62.1° 48.2° - - -
4/25 9:20pm 274 2 G 3 51° 74% - - 43° 62.1° 48.2° - - -
4/25 9:10pm 270 2 G 4 51° 73% - - 43° 62.1° 48.2° - - -
4/25 9:00pm 282 2 G 4 51° 73% - - 43° 62.1° 48.2° - - -
4/25 8:50pm 273 1 G 4 51° 74% - - 43° 62.1° 48.2° - - -
4/25 8:40pm 301 3 G 4 51° 74% - - 43° 62.1° 48.2° - - -
4/25 8:30pm 317 1 G 3 51° 74% - - 43° 62.1° 48.2° - - -
4/25 8:20pm 245 1 G 3 51° 74% - - 43° 62.1° 48.2° - - -
4/25 8:10pm 250 2 G 3 51° 72% - - 42° 62.1° 48.2° - - -
4/25 8:00pm 246 1 G 4 51° 72% - - 42° 62.1° 48.2° - - -
4/25 7:50pm 239 1 G 4 51° 72% - - 42° 62.1° 48.2° - - -
4/25 7:40pm 257 2 G 5 51° 71% - - 42° 62.1° 48.2° - - -
4/25 7:30pm 269 3 G 6 52° 70% - - 43° 62.1° 48.2° - - -
4/25 7:20pm 286 4 G 6 53° 70% - - 43° 62.1° 48.2° - - -
4/25 7:10pm 280 4 G 8 53° 70% - - 43° 62.1° 48.2° - - -
4/25 7:00pm 282 6 G 9 54° 69% - - 44° 62.1° 48.2° - - -
4/25 6:50pm 287 6 G 11 54° 70% - - 44° 62.1° 48.2° - - -
4/25 6:40pm 280 5 G 9 54° 69% - - 44° 62.1° 48.2° - - -
4/25 6:30pm 275 6 G 11 55° 70% - - 45° 62.1° 48.2° - - -
4/25 6:20pm 275 5 G 8 55° 71% - - 46° 62.1° 48.2° - - -
4/25 6:10pm 277 4 G 8 55° 71% - - 46° 62.1° 48.2° - - -
4/25 6:00pm 276 6 G 12 56° 71% - - 47° 62.1° 48.2° - - -
4/25 5:50pm 283 6 G 13 56° 71% - - 47° 62.1° 48.2° - - -
4/25 5:40pm 273 6 G 12 57° 71% - - 48° 62.1° 48.2° - - -
4/25 5:30pm 271 6 G 12 56° 72% - - 47° 62.1° 48.2° - - -
4/25 5:20pm 277 6 G 11 57° 71% - - 47° 62.1° 48.2° - - -
4/25 5:10pm 279 6 G 12 57° 70% - - 47° 62.1° 48.2° - - -
4/25 5:00pm 276 5 G 11 58° 68% - - 47° 62.1° 48.2° - - -
4/25 4:50pm 281 6 G 11 58° 68% - - 47° 62.1° 48.2° - - -
4/25 4:40pm 269 6 G 14 58° 67% - - 47° 62.1° 48.2° - - -
4/25 4:30pm 272 4 G 11 58° 66% - - 47° 62.1° 48.2° - - -
4/25 4:20pm 266 6 G 12 58° 66% - - 47° 62.1° 48.2° - - -
4/25 4:10pm 276 6 G 11 59° 66% - - 47° 62.1° 48.2° - - -
4/25 4:00pm 289 7 G 13 58° 68% - - 47° 62.1° 48.2° - - -
4/25 3:50pm 285 7 G 13 58° 68% - - 47° 62.1° 48.2° - - -
4/25 3:40pm 277 5 G 11 59° 66% - - 47° 62.1° 48.2° - - -
4/25 3:30pm 282 5 G 14 59° 64% - - 47° 62.1° 48.2° - - -
4/25 3:20pm 279 5 G 11 60° 63% - - 47° 62.1° 48.2° - - -
4/25 3:10pm 262 4 G 10 60° 63% - - 47° 62.1° 48.2° - - -
4/25 3:00pm 264 7 G 12 59° 65% - - 47° 62.1° 48.2° - - -
4/25 2:50pm 260 5 G 12 59° 64% - - 47° 62.1° 48.2° - - -
4/25 2:40pm 275 6 G 13 60° 61% - - 47° 62.1° 48.2° - - -
4/25 2:30pm 274 4 G 10 60° 60% - - 46° 62.1° 48.2° - - -
4/25 2:20pm 295 4 G 11 60° 61% - - 47° 62.1° 48.2° - - -
4/25 2:10pm 283 6 G 12 60° 61% - - 47° 62.1° 48.2° - - -
4/25 2:00pm 303 7 G 15 60° 61% - - 47° 62.1° 48.2° - - -
4/25 1:50pm 284 7 G 13 60° 61% - - 47° 62.1° 48.2° - - -
4/25 1:40pm 293 6 G 13 61° 60% - - 47° 62.1° 48.2° - - -
4/25 1:30pm 292 7 G 14 60° 61% - - 47° 62.1° 48.2° - - -
4/25 1:20pm 272 5 G 10 60° 61% - - 46° 62.1° 48.2° - - -
4/25 1:10pm 288 7 G 12 60° 60% - - 46° 62.1° 48.2° - - -
4/25 1:00pm 294 7 G 13 60° 58% - - 45° 62.1° 48.2° - - -
4/25 12:50pm 287 6 G 15 60° 57% - - 45° 62.1° 48.2° - - -
4/25 12:40pm 296 6 G 14 60° 58% - - 45° 62.1° 48.2° - - -
4/25 12:30pm 286 6 G 13 61° 55% - - 44° 62.1° 48.2° - - -
4/25 12:20pm 304 5 G 14 61° 54% - - 45° 62.1° 48.2° - - -
4/25 12:10pm 304 7 G 13 61° 53% - - 44° 61.8° 48.2° - - -
4/25 12:00pm 283 6 G 16 60° 54% - - 44° 61.8° 48.2° - - -
4/25 11:50am 302 6 G 12 60° 57% - - 45° 61.8° 48.2° - - -
4/25 11:40am 283 6 G 12 60° 57% - - 45° 61.8° 48.2° - - -
4/25 11:30am 287 6 G 13 60° 55% - - 44° 61.1° 48.2° - - -
4/25 11:20am 295 5 G 12 59° 59% - - 45° 60.7° 48.2° - - -
4/25 11:10am 293 6 G 13 60° 58% - - 45° 60.7° 48.2° - - -
4/25 11:00am 279 5 G 10 59° 60% - - 45° 60.5° 48.2° - - -
4/25 10:50am 275 5 G 12 57° 67% - - 46° 59.2° 48.2° - - -
4/25 10:40am 309 5 G 13 58° 63% - - 45° 59.2° 48.2° - - -
4/25 10:30am 300 4 G 10 58° 63% - - 45° 59.1° 48.2° - - -
4/25 10:20am 285 6 G 11 56° 67% - - 45° 57.7° 48.2° - - -
4/25 10:10am 273 3 G 8 57° 65% - - 45° 57.7° 48.2° - - -
4/25 10:00am 260 4 G 10 56° 69% - - 46° 56.8° 48.2° - - -
4/25 9:50am 272 4 G 8 55° 71% - - 46° 55.8° 48.2° - - -
4/25 9:40am 271 4 G 9 54° 73% - - 46° 55.4° 48.2° - - -
4/25 9:30am 272 4 G 7 54° 72% - - 45° 55.4° 48.2° - - -
4/25 9:20am 249 4 G 7 54° 73% - - 46° 55.4° 48.2° - - -
4/25 9:10am 240 3 G 7 54° 75% - - 46° 55.3° 48.2° - - -
4/25 9:00am 235 5 G 10 53° 79% - - 46° 54.1° 48.2° - - -
4/25 8:50am 220 6 G 10 53° 78% - - 47° 54.1° 48.2° - - -
4/25 8:40am 216 5 G 9 52° 80% - - 46° 54.1° 48.2° - - -
4/25 8:30am 218 6 G 10 53° 78% - - 46° 54.1° 48.2° - - -
4/25 8:20am 210 4 G 7 53° 77% - - 46° 53.9° 48.2° - - -
4/25 8:10am 202 4 G 6 53° 79% - - 46° 53.2° 48.2° - - -
4/25 8:00am 185 4 G 7 52° 82% - - 47° 52.7° 48.2° - - -
4/25 7:50am 186 4 G 7 51° 83% - - 47° 51.7° 48.2° - - -
4/25 7:40am 204 4 G 6 51° 85% - - 47° 51.5° 48.2° - - -
4/25 7:30am 195 4 G 7 51° 86% - - 47° 50.9° 48.2° - - -
4/25 7:20am 173 5 G 7 50° 87% - - 46° 50.4° 48.2° - - -
4/25 7:10am 171 5 G 8 50° 88% - - 46° 50.2° 48.2° - - -
4/25 7:00am 166 6 G 8 49° 89% - - 46° 50.1° 48.2° - - -
4/25 6:50am 172 5 G 8 49° 89% - - 46° 50.1° 48.2° - - -
4/25 6:40am 197 5 G 8 49° 90% - - 46° 50.1° 48.2° - - -
4/25 6:30am 199 6 G 9 49° 89% - - 46° 50.1° 48.2° - - -
4/25 6:20am 202 6 G 8 49° 89% - - 46° 50.1° 48.2° - - -
4/25 6:10am 178 5 G 9 49° 89% - - 46° 50.1° 48.2° - - -
4/25 6:00am 157 7 G 11 49° 90% - - 46° 50.1° 48.2° - - -
4/25 5:50am 165 6 G 10 49° 90% - - 46° 50.1° 48.2° - - -
4/25 5:40am 167 6 G 10 49° 89% - - 46° 50.1° 48.2° - - -
4/25 5:30am 164 8 G 12 49° 89% - - 46° 50.1° 48.2° - - -
4/25 5:20am 172 7 G 11 49° 89% - - 46° 50.1° 48.2° - - -
4/25 5:10am 169 7 G 11 49° 89% - - 46° 50.1° 48.2° - - -
4/25 5:00am 172 7 G 11 49° 89% - - 46° 50.1° 48.2° - - -
4/25 4:50am 169 7 G 11 49° 89% - - 46° 50.1° 48.2° - - -
4/25 4:40am 164 8 G 11 49° 90% - - 46° 50.1° 48.2° - - -
4/25 4:30am 170 7 G 11 49° 90% - - 46° 50.1° 48.2° - - -
4/25 4:20am 170 7 G 10 49° 90% - - 46° 50.1° 48.2° - - -
4/25 4:10am 164 6 G 9 49° 91% - - 46° 50.1° 48.2° - - -
4/25 4:00am 181 5 G 9 49° 91% - - 46° 50.1° 48.2° - - -
4/25 3:50am 208 4 G 5 49° 92% - - 46° 50.1° 48.2° - - -
4/25 3:40am 220 5 G 8 48° 92% - - 46° 50.1° 48.2° - - -
4/25 3:30am 215 6 G 10 49° 92% - - 46° 50.1° 48.4° - - -
4/25 3:20am 221 6 G 9 49° 92% - - 47° 50.1° 48.5° - - -
4/25 3:10am 223 6 G 10 49° 91% - - 47° 50.1° 48.5° - - -
4/25 3:00am 227 5 G 9 49° 91% - - 47° 50.1° 48.5° - - -
4/25 2:50am 223 6 G 9 49° 90% - - 47° 50.1° 48.5° - - -
4/25 2:40am 199 4 G 10 50° 89% - - 47° 50.1° 48.5° - - -
4/25 2:30am 200 4 G 8 50° 89% - - 46° 50.1° 48.5° - - -
4/25 2:20am 205 4 G 8 50° 88% - - 46° 50.1° 48.5° - - -
4/25 2:10am 176 4 G 8 50° 88% - - 46° 50.1° 48.5° - - -
4/25 2:00am 166 6 G 11 50° 87% - - 46° 50.1° 48.5° - - -
4/25 1:50am 183 5 G 8 50° 87% - - 46° 50.1° 48.5° - - -
4/25 1:40am 174 4 G 8 50° 88% - - 46° 50° 48.5° - - -
4/25 1:30am 167 4 G 7 50° 88% - - 46° 49.9° 48.5° - - -
4/25 1:20am 190 3 G 5 50° 88% - - 46° 49.9° 48.5° - - -
4/25 1:10am 197 4 G 8 49° 88% - - 46° 49.6° 48.5° - - -
4/25 1:00am 206 4 G 7 49° 89% - - 46° 49.5° 48.5° - - -
4/25 12:50am 213 4 G 7 49° 90% - - 46° 49.3° 48.5° - - -
4/25 12:40am 223 5 G 10 49° 90% - - 46° 49.2° 48.5° - - -
4/25 12:30am 220 7 G 12 49° 91% - - 46° 49.2° 48.5° - - -
4/25 12:20am 221 8 G 15 49° 91% - - 46° 49.2° 48.5° - - -
4/25 12:10am 220 8 G 13 49° 91% - - 46° 49.2° 48.6° - - -
4/25 12:00am 221 8 G 13 49° 90% - - 46° 65.9° 44° - - -
4/24 11:50pm 237 5 G 8 49° 89% - - 46° 65.9° 44° - - -
4/24 11:40pm 236 3 G 9 49° 89% - - 46° 65.9° 44° - - -
4/24 11:30pm 243 4 G 9 49° 90% - - 46° 65.9° 44° - - -
4/24 11:20pm 236 6 G 11 49° 91% - - 46° 65.9° 44° - - -
4/24 11:10pm 239 6 G 10 49° 91% - - 47° 65.9° 44° - - -
4/24 11:00pm 247 4 G 7 49° 90% - - 47° 65.9° 44° - - -
4/24 10:50pm 232 6 G 10 50° 90% - - 47° 65.9° 44° - - -
4/24 10:40pm 224 4 G 9 50° 89% - - 47° 65.9° 44° - - -
4/24 10:30pm 202 3 G 8 50° 90% - - 47° 65.9° 44° - - -
4/24 10:20pm 230 5 G 10 50° 90% - - 47° 65.9° 44° - - -
4/24 10:10pm 223 3 G 7 50° 90% - - 47° 65.9° 44° - - -
4/24 10:00pm 216 3 G 6 49° 89% - - 46° 65.9° 44° - - -
4/24 9:50pm 233 4 G 6 50° 88% - - 46° 65.9° 44° - - -
4/24 9:40pm 238 4 G 7 50° 88% - - 46° 65.9° 44° - - -
4/24 9:30pm 221 3 G 7 50° 87% - - 46° 65.9° 44° - - -
4/24 9:20pm 217 4 G 7 50° 86% - - 46° 65.9° 44° - - -
4/24 9:10pm 227 4 G 7 51° 87% - - 47° 65.9° 44° - - -
4/24 9:00pm 222 5 G 8 51° 88% - - 47° 65.9° 44° - - -
4/24 8:50pm 234 3 G 7 51° 87% - - 47° 65.9° 44° - - -
4/24 8:40pm 245 2 G 4 51° 88% - - 48° 65.9° 44° - - -
4/24 8:30pm 251 1 G 3 51° 88% - - 48° 65.9° 44° - - -
4/24 8:20pm 222 3 G 5 51° 88% - - 48° 65.9° 44° - - -
4/24 8:10pm 229 3 G 5 51° 88% - - 48° 65.9° 44° - - -
4/24 8:00pm 238 4 G 6 51° 88% - - 48° 65.9° 44° - - -
4/24 7:50pm 228 4 G 7 51° 88% - - 48° 65.9° 44° - - -
4/24 7:40pm 220 3 G 6 52° 87% - - 48° 65.9° 44° - - -
4/24 7:30pm 225 4 G 6 52° 86% - - 48° 65.9° 44° - - -
4/24 7:20pm 237 3 G 6 53° 85% - - 49° 65.9° 44° - - -
4/24 7:10pm 242 3 G 7 54° 83% - - 49° 65.9° 44° - - -
4/24 7:00pm 231 3 G 5 54° 82% - - 49° 65.9° 44° - - -
4/24 6:50pm 227 4 G 6 54° 80% - - 48° 65.9° 44° - - -
4/24 6:40pm 235 4 G 7 55° 79% - - 48° 65.9° 44° - - -
4/24 6:30pm 237 4 G 8 55° 77% - - 48° 65.9° 44° - - -
4/24 6:20pm 233 4 G 7 55° 76% - - 48° 65.9° 44° - - -
4/24 6:10pm 225 6 G 11 55° 76% - - 48° 65.9° 44° - - -
4/24 6:00pm 235 6 G 10 56° 75% - - 48° 65.9° 44° - - -